Time;durP1;ratioP1;P1;durP2;ratioP2;P2;SDS_P1;SDS_P2;PMS_P1;PMS_P2;Temp;Humidity;BMP_temperature;BMP_pressure;BME280_temperature;BME280_humidity;BME280_pressure;Samples;Min_cycle;Max_cycle;Signal;HPM_P1;HPM_P2
2021/07/09 19:01:26;;;;;;;7.25;3.58;;;;;;;;;;5151925;27;20448;-69
2021/07/09 19:03:52;;;;;;;4.55;3.10;;;;;;;;;;5131350;28;20563;-71
2021/07/09 19:06:18;;;;;;;11.10;3.22;;;;;;;;;;5131086;27;20430;-70
2021/07/09 19:08:45;;;;;;;10.25;4.07;;;;;;;;;;5131230;27;20031;-72
2021/07/09 19:11:11;;;;;;;6.50;3.60;;;;;;;;;;5130983;27;20020;-71
2021/07/09 19:13:38;;;;;;;7.70;3.40;;;;;;;;;;5130929;27;20023;-71
2021/07/09 19:16:04;;;;;;;6.65;3.20;;;;;;;;;;5130838;27;20007;-70
2021/07/09 19:18:32;;;;;;;5.53;3.10;;;;;;;;;;5128950;28;20035;-70
2021/07/09 19:20:58;;;;;;;8.23;2.90;;;;;;;;;;5130665;27;20020;-71
2021/07/09 19:23:24;;;;;;;8.95;2.90;;;;;;;;;;5130710;27;20062;-71
2021/07/09 19:25:51;;;;;;;8.25;3.25;;;;;;;;;;5130716;27;20008;-72
2021/07/09 19:28:17;;;;;;;6.13;3.58;;;;;;;;;;5132982;27;20451;-71
2021/07/09 19:30:43;;;;;;;6.20;3.50;;;;;;;;;;5131640;27;20027;-71
2021/07/09 19:33:11;;;;;;;3.53;3.05;;;;;;;;;;5130634;27;20015;-71
2021/07/09 19:35:39;;;;;;;6.18;2.97;;;;;;;;;;5130942;27;20019;-71
2021/07/09 19:38:06;;;;;;;3.35;2.55;;;;;;;;;;5130226;27;20058;-72
2021/07/09 19:40:33;;;;;;;5.13;2.83;;;;;;;;;;5130099;27;20066;-71
2021/07/09 19:42:59;;;;;;;6.93;3.42;;;;;;;;;;5130521;27;20043;-71
2021/07/09 19:45:26;;;;;;;6.43;3.38;;;;;;;;;;5130435;27;20042;-70
2021/07/09 19:47:53;;;;;;;5.55;3.38;;;;;;;;;;5130431;27;20028;-71
2021/07/09 19:50:19;;;;;;;6.95;3.13;;;;;;;;;;5123065;27;20496;-71
2021/07/09 19:52:45;;;;;;;5.65;3.17;;;;;;;;;;5107674;28;20020;-70
2021/07/09 19:55:12;;;;;;;7.03;3.65;;;;;;;;;;5109576;28;20379;-74
2021/07/09 19:57:39;;;;;;;6.90;3.35;;;;;;;;;;5108663;28;20027;-74
2021/07/09 20:00:07;;;;;;;4.88;3.20;;;;;;;;;;5109383;28;20095;-71
2021/07/09 20:02:34;;;;;;;4.60;3.60;;;;;;;;;;5095396;28;20012;-71
2021/07/09 20:04:59;;;;;;;3.67;3.10;;;;;;;;;;5095905;28;20048;-72
2021/07/09 20:07:25;;;;;;;7.47;3.13;;;;;;;;;;5096081;28;20093;-72
2021/07/09 20:09:51;;;;;;;7.25;3.20;;;;;;;;;;5095767;28;20028;-71
2021/07/09 20:12:17;;;;;;;5.32;3.00;;;;;;;;;;5096125;28;20016;-70
2021/07/09 20:14:44;;;;;;;4.75;3.55;;;;;;;;;;5095681;28;20468;-72
2021/07/09 20:17:11;;;;;;;7.18;3.50;;;;;;;;;;5095417;28;20020;-72
2021/07/09 20:19:38;;;;;;;5.25;3.58;;;;;;;;;;5095909;28;20019;-72
2021/07/09 20:22:04;;;;;;;6.00;3.40;;;;;;;;;;5095857;28;20145;-72
2021/07/09 20:24:31;;;;;;;6.68;3.97;;;;;;;;;;5095432;28;20012;-73
2021/07/09 20:26:57;;;;;;;6.43;3.78;;;;;;;;;;5095431;28;20012;-72
2021/07/09 20:29:22;;;;;;;5.50;3.60;;;;;;;;;;5095158;28;20032;-72
2021/07/09 20:31:49;;;;;;;4.90;3.58;;;;;;;;;;5095496;28;20034;-72
2021/07/09 20:34:15;;;;;;;6.38;3.65;;;;;;;;;;5095364;28;20027;-71
2021/07/09 20:36:43;;;;;;;5.13;3.97;;;;;;;;;;5095247;28;20024;-70
2021/07/09 20:39:09;;;;;;;7.35;3.72;;;;;;;;;;5095274;28;20501;-72
2021/07/09 20:41:36;;;;;;;8.02;4.10;;;;;;;;;;5095214;28;20027;-72
2021/07/09 20:44:02;;;;;;;9.32;4.40;;;;;;;;;;5095461;28;20100;-71
2021/07/09 20:46:29;;;;;;;8.88;5.00;;;;;;;;;;5095142;28;20009;-72
2021/07/09 20:48:56;;;;;;;10.05;5.10;;;;;;;;;;5094875;28;20027;-71
2021/07/09 20:51:22;;;;;;;18.40;6.72;;;;;;;;;;5094770;28;20015;-71
2021/07/09 20:53:47;;;;;;;20.48;7.68;;;;;;;;;;5095100;28;20024;-73
2021/07/09 20:56:14;;;;;;;11.02;5.78;;;;;;;;;;5095086;28;20525;-72
2021/07/09 20:58:40;;;;;;;14.50;6.43;;;;;;;;;;5095145;28;20069;-71
2021/07/09 21:01:05;;;;;;;14.35;6.13;;;;;;;;;;5094601;28;20040;-72
2021/07/09 21:03:31;;;;;;;19.55;6.88;;;;;;;;;;5094613;28;20028;-72
2021/07/09 21:05:59;;;;;;;9.85;6.32;;;;;;;;;;5094697;28;20058;-71
2021/07/09 21:08:26;;;;;;;15.05;6.60;;;;;;;;;;5095072;28;20078;-71
2021/07/09 21:10:58;;;;;;;18.35;6.95;;;;;;;;;;5094512;28;20016;-70
2021/07/09 21:13:28;;;;;;;23.27;7.72;;;;;;;;;;5093507;28;20020;-74
2021/07/09 21:15:54;;;;;;;11.00;5.80;;;;;;;;;;5094710;28;20043;-70
2021/07/09 21:18:20;;;;;;;11.13;6.32;;;;;;;;;;5094641;28;20012;-72
2021/07/09 21:20:46;;;;;;;11.68;6.03;;;;;;;;;;5094095;28;20118;-72
2021/07/09 21:23:12;;;;;;;15.38;5.95;;;;;;;;;;5094382;28;20023;-71
2021/07/09 21:25:38;;;;;;;10.02;5.80;;;;;;;;;;5094655;28;20047;-71
2021/07/09 21:28:04;;;;;;;10.20;5.35;;;;;;;;;;5094437;28;20017;-72
2021/07/09 21:30:30;;;;;;;11.25;5.05;;;;;;;;;;5094333;28;20028;-70
2021/07/09 21:32:56;;;;;;;10.10;5.95;;;;;;;;;;5094200;28;20020;-70
2021/07/09 21:35:23;;;;;;;9.85;5.30;;;;;;;;;;5093993;28;20024;-71
2021/07/09 21:37:49;;;;;;;11.27;6.05;;;;;;;;;;5094356;28;20140;-71
2021/07/09 21:40:16;;;;;;;11.85;6.25;;;;;;;;;;5094275;28;20027;-73
2021/07/09 21:42:42;;;;;;;14.65;7.32;;;;;;;;;;5094134;28;20468;-72
2021/07/09 21:45:09;;;;;;;16.75;8.10;;;;;;;;;;5093906;28;20027;-70
2021/07/09 21:47:36;;;;;;;17.02;9.13;;;;;;;;;;5094223;28;20081;-71
2021/07/09 21:50:03;;;;;;;12.32;7.82;;;;;;;;;;5094171;28;20024;-71
2021/07/09 21:52:28;;;;;;;13.90;6.72;;;;;;;;;;5094078;28;20022;-70
2021/07/09 21:54:55;;;;;;;12.75;8.30;;;;;;;;;;5095704;28;20020;-71
2021/07/09 21:57:22;;;;;;;15.05;8.25;;;;;;;;;;5098712;28;20035;-68
2021/07/09 21:59:47;;;;;;;13.25;8.38;;;;;;;;;;5093540;28;20108;-71
2021/07/09 22:02:12;;;;;;;18.73;9.55;;;;;;;;;;5093891;28;20028;-70
2021/07/09 22:04:38;;;;;;;16.58;9.00;;;;;;;;;;5093924;28;20439;-70
2021/07/09 22:07:05;;;;;;;19.02;11.00;;;;;;;;;;5093697;28;20384;-69
2021/07/09 22:09:31;;;;;;;17.65;10.77;;;;;;;;;;5093419;28;20013;-70
2021/07/09 22:11:58;;;;;;;26.27;10.55;;;;;;;;;;5093489;28;20020;-70
2021/07/09 22:14:24;;;;;;;20.30;10.98;;;;;;;;;;5093630;28;20039;-71
2021/07/09 22:16:51;;;;;;;21.00;9.98;;;;;;;;;;5093393;28;20460;-71
2021/07/09 22:19:18;;;;;;;17.35;10.13;;;;;;;;;;5093341;28;20472;-70
2021/07/09 22:21:45;;;;;;;16.13;9.63;;;;;;;;;;5093307;28;20498;-70
2021/07/09 22:24:10;;;;;;;15.10;10.15;;;;;;;;;;5093408;28;20015;-70
2021/07/09 22:26:37;;;;;;;13.77;9.65;;;;;;;;;;5093218;28;20106;-70
2021/07/09 22:29:04;;;;;;;13.23;9.45;;;;;;;;;;5093171;28;20035;-70
2021/07/09 22:31:34;;;;;;;14.10;8.75;;;;;;;;;;5093127;28;20019;-72
2021/07/09 22:34:01;;;;;;;10.85;8.23;;;;;;;;;;5093187;28;20027;-70
2021/07/09 22:36:26;;;;;;;14.43;9.18;;;;;;;;;;5093391;28;20039;-71
2021/07/09 22:38:53;;;;;;;12.60;10.15;;;;;;;;;;5093009;28;20468;-71
2021/07/09 22:41:20;;;;;;;13.38;8.63;;;;;;;;;;5093318;28;20027;-72
2021/07/09 22:46:49;;;;;;;19.08;9.80;;;;;;;;;;5093386;28;20081;-70
2021/07/09 22:49:14;;;;;;;18.20;10.50;;;;;;;;;;5092806;28;20116;-71
2021/07/09 22:51:41;;;;;;;12.85;9.13;;;;;;;;;;5092931;28;20048;-72
2021/07/09 22:54:07;;;;;;;16.05;11.35;;;;;;;;;;5092891;28;20050;-70
2021/07/09 22:56:32;;;;;;;14.50;10.52;;;;;;;;;;5093318;28;20048;-71
2021/07/09 22:58:58;;;;;;;14.68;9.90;;;;;;;;;;5093104;28;20063;-71
2021/07/09 23:01:24;;;;;;;14.27;9.93;;;;;;;;;;5092634;28;20048;-71
2021/07/09 23:03:51;;;;;;;12.57;8.43;;;;;;;;;;5092960;28;20012;-72
2021/07/09 23:06:17;;;;;;;13.57;10.07;;;;;;;;;;5093012;28;20058;-71
2021/07/09 23:08:42;;;;;;;15.15;10.80;;;;;;;;;;5092920;28;20069;-71
2021/07/09 23:11:08;;;;;;;17.45;10.43;;;;;;;;;;5092679;28;20539;-71
2021/07/09 23:13:35;;;;;;;22.33;11.07;;;;;;;;;;5093135;28;20023;-72
2021/07/09 23:16:01;;;;;;;18.65;11.07;;;;;;;;;;5092738;28;20034;-70
2021/07/09 23:18:27;;;;;;;17.63;11.98;;;;;;;;;;5093052;28;20105;-71
2021/07/09 23:20:53;;;;;;;20.88;11.05;;;;;;;;;;5092738;28;20095;-73
2021/07/09 23:23:19;;;;;;;24.95;11.88;;;;;;;;;;5092776;28;20112;-72
2021/07/09 23:25:45;;;;;;;17.63;11.75;;;;;;;;;;5092859;28;20101;-70
2021/07/09 23:28:11;;;;;;;20.70;10.73;;;;;;;;;;5092843;28;20044;-71
2021/07/09 23:30:37;;;;;;;15.90;10.23;;;;;;;;;;5092869;28;20040;-72
2021/07/09 23:33:03;;;;;;;18.88;10.55;;;;;;;;;;5092979;28;20023;-71
2021/07/09 23:35:30;;;;;;;16.60;9.38;;;;;;;;;;5092550;28;20028;-71
2021/07/09 23:37:56;;;;;;;16.75;8.30;;;;;;;;;;5095045;28;20438;-72
2021/07/09 23:40:22;;;;;;;13.00;7.85;;;;;;;;;;5096478;28;20399;-71
2021/07/09 23:42:48;;;;;;;11.77;7.85;;;;;;;;;;5096634;28;20020;-72
2021/07/09 23:45:14;;;;;;;14.80;8.70;;;;;;;;;;5096288;28;20072;-72
2021/07/09 23:47:41;;;;;;;13.13;8.90;;;;;;;;;;5095502;28;20012;-72
2021/07/09 23:50:08;;;;;;;10.63;7.05;;;;;;;;;;5096055;28;20024;-71
2021/07/09 23:52:34;;;;;;;12.13;5.70;;;;;;;;;;5096325;28;20047;-73
2021/07/09 23:54:59;;;;;;;9.75;5.28;;;;;;;;;;5096108;28;20044;-71
2021/07/09 23:57:27;;;;;;;7.90;5.28;;;;;;;;;;5096065;28;20027;-71
2021/07/09 23:59:54;;;;;;;7.68;3.88;;;;;;;;;;5095755;28;20108;-71
